createdAt,value
2023-05-25T00:02:15.553Z,28.80
2023-05-25T00:04:48.540Z,25.70
2023-05-25T00:07:20.172Z,28.20
2023-05-25T00:09:51.220Z,28.00
2023-05-25T00:12:22.265Z,34.50
2023-05-25T00:14:53.602Z,30.40
2023-05-25T00:17:24.633Z,34.70
2023-05-25T00:19:58.242Z,34.70
2023-05-25T00:22:30.260Z,29.90
2023-05-25T00:25:01.320Z,29.90
2023-05-25T00:27:32.595Z,34.80
2023-05-25T00:30:03.638Z,30.90
2023-05-25T00:32:34.755Z,30.80
2023-05-25T00:35:06.544Z,36.00
2023-05-25T00:37:37.584Z,32.70
2023-05-25T00:40:15.398Z,31.80
2023-05-25T00:42:48.790Z,30.90
2023-05-25T00:45:20.011Z,44.10
2023-05-25T00:47:54.449Z,35.40
2023-05-25T00:50:37.696Z,37.50
2023-05-25T00:53:09.726Z,46.40
2023-05-25T00:55:43.121Z,39.30
2023-05-25T00:58:14.705Z,44.10
2023-05-25T01:00:49.808Z,47.70
2023-05-25T01:03:28.510Z,43.70
2023-05-25T01:06:00.229Z,43.00
2023-05-25T01:08:37.106Z,49.10
2023-05-25T01:11:11.578Z,43.30
2023-05-25T01:13:44.253Z,46.00
2023-05-25T01:16:17.167Z,44.60
2023-05-25T01:18:49.215Z,46.00
2023-05-25T01:21:27.236Z,50.10
2023-05-25T01:24:08.822Z,47.00
2023-05-25T01:26:45.567Z,54.10
2023-05-25T01:29:18.812Z,50.70
2023-05-25T01:31:51.679Z,63.10
2023-05-25T01:34:24.040Z,58.60
2023-05-25T01:36:55.141Z,61.70
2023-05-25T01:39:26.541Z,55.80
2023-05-25T01:41:58.054Z,56.00
2023-05-25T01:44:30.007Z,56.40
2023-05-25T01:47:09.209Z,58.30
2023-05-25T01:49:47.323Z,60.80
2023-05-25T01:52:24.929Z,63.00
2023-05-25T01:55:02.100Z,64.30
2023-05-25T01:57:37.815Z,61.00
2023-05-25T02:00:13.419Z,58.90
2023-05-25T02:02:46.818Z,58.90
2023-05-25T02:05:20.968Z,64.90
2023-05-25T02:07:51.964Z,64.50
2023-05-25T02:10:23.081Z,48.40
2023-05-25T02:12:54.146Z,61.70
2023-05-25T02:15:25.680Z,56.60
2023-05-25T02:17:58.048Z,58.40
2023-05-25T02:20:29.416Z,48.70
2023-05-25T02:23:00.490Z,52.80
2023-05-25T02:25:31.501Z,52.90
2023-05-25T02:28:02.547Z,51.70
2023-05-25T02:30:33.546Z,50.90
2023-05-25T02:33:04.638Z,48.50
2023-05-25T02:35:35.694Z,46.50
2023-05-25T02:38:07.653Z,49.40
2023-05-25T02:40:38.665Z,56.20
2023-05-25T02:43:10.126Z,49.50
2023-05-25T02:45:42.798Z,46.40
2023-05-25T02:48:13.916Z,47.20
2023-05-25T02:50:45.850Z,49.50
2023-05-25T02:53:17.978Z,46.70
2023-05-25T02:55:49.588Z,46.50
2023-05-25T02:58:22.880Z,43.00
2023-05-25T03:01:11.231Z,47.00
2023-05-25T03:03:47.384Z,41.60
2023-05-25T03:06:18.680Z,43.20
2023-05-25T03:08:49.970Z,45.80
2023-05-25T03:11:21.059Z,45.50
2023-05-25T03:13:52.984Z,42.70
2023-05-25T03:16:26.169Z,46.90
2023-05-25T03:18:57.836Z,42.40
2023-05-25T03:21:28.853Z,44.00
2023-05-25T03:24:00.644Z,38.30
2023-05-25T03:26:32.293Z,48.00
2023-05-25T03:29:06.960Z,41.70
2023-05-25T03:31:38.110Z,48.20
2023-05-25T03:34:09.835Z,39.90
2023-05-25T03:36:46.005Z,42.20
2023-05-25T03:39:17.869Z,45.30
2023-05-25T03:41:48.915Z,44.10
2023-05-25T03:44:20.490Z,44.40
2023-05-25T03:46:51.823Z,39.90
2023-05-25T03:49:22.719Z,39.60
2023-05-25T03:51:54.002Z,43.30
2023-05-25T03:54:24.959Z,46.70
2023-05-25T03:57:12.007Z,43.40
2023-05-25T03:59:42.972Z,47.90
2023-05-25T04:02:13.984Z,43.10
2023-05-25T04:04:45.385Z,41.00
2023-05-25T04:07:16.505Z,45.50
2023-05-25T04:09:47.368Z,39.80
2023-05-25T04:12:18.323Z,40.20
2023-05-25T04:14:49.319Z,44.50
2023-05-25T04:17:24.938Z,40.40
2023-05-25T04:19:57.335Z,39.00
2023-05-25T04:22:29.358Z,38.90
2023-05-25T04:25:00.245Z,41.50
2023-05-25T04:27:31.340Z,44.60
2023-05-25T04:30:02.723Z,40.00
2023-05-25T04:32:52.280Z,38.40
2023-05-25T04:35:40.917Z,36.90
2023-05-25T04:38:12.606Z,38.70
2023-05-25T04:40:44.097Z,45.00
2023-05-25T04:43:18.476Z,40.70
2023-05-25T04:45:51.493Z,39.90
2023-05-25T04:48:24.650Z,36.60
2023-05-25T04:50:57.511Z,37.80
2023-05-25T04:53:28.581Z,28.50
2023-05-25T04:55:59.626Z,32.60
2023-05-25T04:58:30.997Z,37.80
2023-05-25T05:01:03.934Z,34.90
2023-05-25T05:03:35.106Z,35.70
2023-05-25T05:06:07.694Z,35.80
2023-05-25T05:08:38.785Z,37.50
2023-05-25T05:11:09.963Z,33.50
2023-05-25T05:13:40.977Z,33.20
2023-05-25T05:16:12.087Z,38.60
2023-05-25T05:18:46.237Z,41.40
2023-05-25T05:21:17.897Z,36.10
2023-05-25T05:23:49.104Z,42.20
2023-05-25T05:26:21.360Z,36.30
2023-05-25T05:28:52.784Z,34.70
2023-05-25T05:31:24.504Z,36.90
2023-05-25T05:33:55.601Z,33.90
2023-05-25T05:36:29.899Z,48.80
2023-05-25T05:39:01.469Z,35.30
2023-05-25T05:41:32.823Z,34.70
2023-05-25T05:44:03.845Z,34.20
2023-05-25T05:46:34.878Z,38.90
2023-05-25T05:49:06.161Z,31.50
2023-05-25T05:51:37.083Z,36.80
2023-05-25T05:54:08.508Z,31.70
2023-05-25T05:56:39.579Z,32.40
2023-05-25T05:59:12.205Z,34.50
2023-05-25T06:01:43.812Z,30.00
2023-05-25T06:04:16.684Z,33.60
2023-05-25T06:06:50.153Z,36.00
2023-05-25T06:09:21.093Z,31.50
2023-05-25T06:11:52.161Z,31.00
2023-05-25T06:14:23.476Z,30.80
2023-05-25T06:16:54.986Z,29.50
2023-05-25T06:19:28.847Z,34.60
2023-05-25T06:22:01.012Z,32.40
2023-05-25T06:24:32.261Z,35.10
2023-05-25T06:27:03.854Z,31.80
2023-05-25T06:29:35.516Z,30.30
2023-05-25T06:32:07.378Z,33.00
2023-05-25T06:34:38.833Z,34.20
2023-05-25T06:37:09.839Z,38.00
2023-05-25T06:39:43.440Z,32.20
2023-05-25T06:42:14.843Z,37.20
2023-05-25T06:44:54.600Z,35.70
2023-05-25T06:47:25.673Z,34.10
2023-05-25T06:49:56.663Z,34.00
2023-05-25T06:52:29.287Z,34.30
2023-05-25T06:55:01.018Z,37.30
2023-05-25T06:57:32.575Z,36.70
2023-05-25T07:00:05.252Z,34.40
2023-05-25T07:02:37.020Z,35.40
2023-05-25T07:05:09.138Z,36.50
2023-05-25T07:07:40.391Z,32.70
2023-05-25T07:10:12.582Z,36.60
2023-05-25T07:12:44.177Z,35.10
2023-05-25T07:15:16.485Z,28.50
2023-05-25T07:17:47.547Z,32.20
2023-05-25T07:20:19.290Z,34.30
2023-05-25T07:22:51.190Z,34.40
2023-05-25T07:25:22.270Z,31.60
2023-05-25T07:27:55.240Z,34.50
2023-05-25T07:30:26.326Z,35.00
2023-05-25T07:32:59.800Z,35.40
2023-05-25T07:35:30.835Z,33.10
2023-05-25T07:38:04.514Z,35.70
2023-05-25T07:40:36.039Z,34.60
2023-05-25T07:43:08.545Z,35.90
2023-05-25T07:45:39.631Z,39.00
2023-05-25T07:48:10.651Z,32.80
2023-05-25T07:50:41.669Z,33.50
2023-05-25T07:53:12.751Z,36.30
2023-05-25T07:55:44.039Z,31.60
2023-05-25T07:58:18.416Z,29.20
2023-05-25T08:00:50.551Z,34.80
2023-05-25T08:03:31.738Z,32.00
2023-05-25T08:06:07.783Z,34.20
2023-05-25T08:08:38.747Z,34.10
2023-05-25T08:11:09.828Z,29.20
2023-05-25T08:13:41.012Z,28.30
2023-05-25T08:16:11.959Z,27.80
2023-05-25T08:18:46.679Z,36.30
2023-05-25T08:21:17.709Z,33.40
2023-05-25T08:23:50.791Z,28.30
2023-05-25T08:28:57.696Z,23.40
2023-05-25T08:31:28.834Z,30.60
2023-05-25T08:33:59.923Z,26.80
2023-05-25T08:36:36.060Z,33.50
2023-05-25T08:39:08.255Z,29.60
2023-05-25T08:41:45.668Z,43.40
2023-05-25T08:44:20.311Z,31.60
2023-05-25T08:46:52.237Z,25.90
2023-05-25T08:49:25.308Z,29.30
2023-05-25T08:51:56.875Z,25.40
2023-05-25T08:54:35.810Z,28.10
2023-05-25T08:57:11.627Z,31.90
2023-05-25T08:59:48.141Z,24.20
2023-05-25T09:02:28.026Z,29.20
2023-05-25T09:05:00.328Z,20.60
2023-05-25T09:07:31.589Z,25.70
2023-05-25T09:10:03.112Z,26.60
2023-05-25T09:12:35.369Z,26.80
2023-05-25T09:15:07.139Z,20.70
2023-05-25T09:17:38.603Z,24.10
2023-05-25T09:20:13.809Z,27.60
2023-05-25T09:22:45.235Z,20.50
2023-05-25T09:25:20.350Z,23.20
2023-05-25T09:27:53.017Z,25.50
2023-05-25T09:30:24.212Z,21.90
2023-05-25T09:32:55.492Z,22.70
2023-05-25T09:35:27.577Z,21.50
2023-05-25T09:37:58.722Z,24.10
2023-05-25T09:40:29.840Z,37.90
2023-05-25T09:43:03.061Z,22.20
2023-05-25T09:45:38.044Z,24.60
2023-05-25T09:48:09.899Z,23.20
2023-05-25T09:50:41.005Z,25.70
2023-05-25T09:53:12.333Z,25.00
2023-05-25T09:55:53.329Z,25.00
2023-05-25T09:58:27.856Z,28.20
2023-05-25T10:00:59.168Z,23.40
2023-05-25T10:03:30.763Z,33.80
2023-05-25T10:06:04.590Z,24.10
2023-05-25T10:08:36.229Z,21.30
2023-05-25T10:11:08.310Z,27.40
2023-05-25T10:13:39.837Z,22.50
2023-05-25T10:16:17.791Z,22.40
2023-05-25T10:18:55.162Z,18.20
2023-05-25T10:21:28.741Z,20.60
2023-05-25T10:24:05.947Z,26.50
2023-05-25T10:26:41.939Z,24.10
2023-05-25T10:29:13.987Z,28.30
2023-05-25T10:31:45.666Z,22.70
2023-05-25T10:34:17.511Z,26.80
2023-05-25T10:36:49.647Z,23.10
2023-05-25T10:39:21.587Z,20.50
2023-05-25T10:41:53.631Z,22.30
2023-05-25T10:44:26.257Z,19.30
2023-05-25T10:46:57.512Z,20.90
2023-05-25T10:49:35.602Z,18.90
2023-05-25T10:52:07.332Z,17.60
2023-05-25T10:54:39.750Z,23.40
2023-05-25T10:57:21.920Z,18.90
2023-05-25T10:59:55.753Z,22.70
2023-05-25T11:02:28.652Z,21.10
2023-05-25T11:05:32.295Z,20.70
2023-05-25T11:08:06.394Z,17.70
2023-05-25T11:10:56.606Z,18.30
2023-05-25T11:13:41.361Z,18.40
2023-05-25T11:16:18.912Z,24.50
2023-05-25T11:18:55.043Z,25.90
2023-05-25T11:21:44.450Z,22.20
2023-05-25T11:24:19.482Z,18.30
2023-05-25T11:26:59.074Z,20.20
2023-05-25T11:29:36.880Z,32.20
2023-05-25T11:32:13.502Z,19.40
2023-05-25T11:34:47.936Z,19.40
2023-05-25T11:37:22.811Z,17.10
2023-05-25T11:42:26.004Z,17.80
2023-05-25T11:44:57.569Z,21.40
2023-05-25T11:47:30.331Z,17.70
2023-05-25T11:50:04.378Z,32.80
2023-05-25T11:52:35.470Z,20.00
2023-05-25T11:55:15.196Z,23.80
2023-05-25T11:57:46.937Z,19.00
2023-05-25T12:00:28.734Z,16.90
2023-05-25T12:02:59.876Z,15.60
2023-05-25T12:05:40.747Z,15.40
2023-05-25T12:08:14.105Z,13.40
2023-05-25T12:10:53.577Z,15.00
2023-05-25T12:13:26.423Z,16.70
2023-05-25T12:16:00.531Z,15.50
2023-05-25T12:18:32.312Z,15.90
2023-05-25T12:21:08.310Z,14.30
2023-05-25T12:23:40.299Z,16.50
2023-05-25T12:26:14.032Z,16.00
2023-05-25T12:29:00.834Z,16.30
2023-05-25T12:31:34.353Z,24.30
2023-05-25T12:34:10.396Z,16.20
2023-05-25T12:36:46.987Z,14.80
2023-05-25T12:39:19.152Z,18.10
2023-05-25T12:41:55.021Z,17.20
2023-05-25T12:44:31.559Z,25.00
2023-05-25T12:47:13.574Z,11.90
2023-05-25T12:49:45.919Z,16.50
2023-05-25T12:52:34.231Z,20.60
2023-05-25T12:55:22.813Z,12.90
2023-05-25T12:57:53.882Z,14.80
2023-05-25T13:00:26.880Z,15.20
2023-05-25T13:02:57.888Z,15.00
2023-05-25T13:05:30.690Z,17.70
2023-05-25T13:08:03.164Z,11.40
2023-05-25T13:10:35.767Z,12.60
2023-05-25T13:13:06.900Z,12.60
2023-05-25T13:15:37.978Z,16.50
2023-05-25T13:18:08.989Z,14.60
2023-05-25T13:20:40.075Z,10.30
2023-05-25T13:23:11.271Z,11.30
2023-05-25T13:25:42.232Z,12.40
2023-05-25T13:28:13.166Z,10.60
2023-05-25T13:30:45.324Z,20.30
2023-05-25T13:33:16.593Z,12.20
2023-05-25T13:35:58.621Z,16.70
2023-05-25T13:38:29.893Z,16.20
2023-05-25T13:41:01.151Z,13.20
2023-05-25T13:43:32.305Z,11.60
2023-05-25T13:46:03.379Z,13.00
2023-05-25T13:48:34.443Z,13.40
2023-05-25T13:51:05.783Z,14.00
2023-05-25T13:53:36.738Z,13.60
2023-05-25T13:56:08.022Z,11.00
2023-05-25T13:58:39.084Z,11.70
2023-05-25T14:01:10.164Z,13.80
2023-05-25T14:03:41.618Z,22.10
2023-05-25T14:06:12.792Z,10.80
2023-05-25T14:08:43.709Z,16.50
2023-05-25T14:11:14.693Z,14.10
2023-05-25T14:13:45.675Z,14.50
2023-05-25T14:16:18.850Z,14.10
2023-05-25T14:18:49.805Z,15.60
2023-05-25T14:21:20.906Z,19.60
2023-05-25T14:23:51.808Z,15.60
2023-05-25T14:26:23.278Z,15.20
2023-05-25T14:28:54.665Z,18.70
2023-05-25T14:31:25.737Z,13.80
2023-05-25T14:33:56.803Z,22.80
2023-05-25T14:36:27.793Z,13.50
2023-05-25T14:38:58.766Z,21.60
2023-05-25T14:41:29.768Z,23.70
2023-05-25T14:44:00.765Z,16.00
2023-05-25T14:46:34.354Z,15.50
2023-05-25T14:49:05.462Z,14.30
2023-05-25T14:51:37.104Z,18.10
2023-05-25T14:54:08.305Z,10.90
2023-05-25T14:56:39.314Z,10.40
2023-05-25T14:59:10.262Z,11.90
2023-05-25T15:01:41.478Z,17.90
2023-05-25T15:04:13.257Z,17.50
2023-05-25T15:06:44.432Z,14.10
2023-05-25T15:09:16.031Z,22.40
2023-05-25T15:11:48.224Z,13.40
2023-05-25T15:14:19.184Z,9.70
2023-05-25T15:16:50.756Z,14.60
2023-05-25T15:19:21.753Z,13.20
2023-05-25T15:21:52.669Z,9.20
2023-05-25T15:24:23.607Z,16.90
2023-05-25T15:26:55.841Z,20.20
2023-05-25T15:29:28.579Z,13.60
2023-05-25T15:31:59.606Z,14.70
2023-05-25T15:34:30.598Z,10.30
2023-05-25T15:37:02.455Z,13.10
2023-05-25T15:39:33.944Z,18.00
2023-05-25T15:42:05.124Z,11.20
2023-05-25T15:44:36.064Z,17.80
2023-05-25T15:47:08.163Z,13.90
2023-05-25T15:49:39.450Z,13.10
2023-05-25T15:52:10.588Z,11.00
2023-05-25T15:54:41.758Z,13.20
2023-05-25T15:57:12.781Z,15.10
2023-05-25T15:59:43.809Z,10.50
2023-05-25T16:02:15.441Z,15.80
2023-05-25T16:04:49.316Z,14.40
2023-05-25T16:07:20.818Z,17.90
2023-05-25T16:09:51.931Z,19.70
2023-05-25T16:12:26.272Z,12.30
2023-05-25T16:14:57.308Z,10.50
2023-05-25T16:17:28.573Z,17.10
2023-05-25T16:19:59.592Z,18.10
2023-05-25T16:22:31.569Z,16.70
2023-05-25T16:25:03.006Z,11.40
2023-05-25T16:27:34.502Z,14.20
2023-05-25T16:30:07.059Z,13.90
2023-05-25T16:32:38.354Z,11.30
2023-05-25T16:35:10.547Z,17.50
2023-05-25T16:37:41.622Z,17.00
2023-05-25T16:40:14.156Z,14.40
2023-05-25T16:42:45.338Z,25.50
2023-05-25T16:45:16.699Z,16.30
2023-05-25T16:47:47.842Z,13.10
2023-05-25T16:50:19.820Z,17.70
2023-05-25T16:52:51.244Z,13.70
2023-05-25T16:55:22.351Z,19.20
2023-05-25T16:57:53.429Z,14.00
2023-05-25T17:00:25.564Z,18.00
2023-05-25T17:02:56.717Z,12.10
2023-05-25T17:05:28.001Z,18.90
2023-05-25T17:07:59.156Z,12.90
2023-05-25T17:10:30.566Z,20.60
2023-05-25T17:13:01.585Z,14.80
2023-05-25T17:15:32.579Z,16.90
2023-05-25T17:18:03.775Z,12.90
2023-05-25T17:20:34.984Z,11.80
2023-05-25T17:23:06.577Z,13.10
2023-05-25T17:25:39.242Z,14.30
2023-05-25T17:28:10.184Z,16.80
2023-05-25T17:30:41.146Z,12.10
2023-05-25T17:33:12.255Z,17.00
2023-05-25T17:35:43.368Z,13.20
2023-05-25T17:38:17.871Z,10.80
2023-05-25T17:40:52.101Z,17.20
2023-05-25T17:43:23.493Z,27.60
2023-05-25T17:45:54.733Z,24.70
2023-05-25T17:48:26.298Z,14.80
2023-05-25T17:50:57.328Z,19.50
2023-05-25T17:53:28.603Z,10.70
2023-05-25T17:55:59.884Z,14.10
2023-05-25T17:58:31.156Z,11.30
2023-05-25T18:01:02.387Z,11.10
2023-05-25T18:03:33.640Z,19.60
2023-05-25T18:06:04.886Z,13.80
2023-05-25T18:08:38.680Z,12.50
2023-05-25T18:11:09.762Z,14.90
2023-05-25T18:13:40.795Z,16.90
2023-05-25T18:16:12.745Z,15.20
2023-05-25T18:18:43.751Z,12.30
2023-05-25T18:21:14.846Z,14.60
2023-05-25T18:23:53.246Z,19.70
2023-05-25T18:26:25.959Z,17.10
2023-05-25T18:28:57.616Z,13.80
2023-05-25T18:31:30.822Z,23.40
2023-05-25T18:34:03.796Z,14.90
2023-05-25T18:36:34.932Z,11.40
2023-05-25T18:39:06.427Z,13.90
2023-05-25T18:41:39.771Z,13.30
2023-05-25T18:44:17.214Z,13.00
2023-05-25T18:46:53.255Z,14.70
2023-05-25T18:49:25.094Z,16.20
2023-05-25T18:51:56.667Z,13.40
2023-05-25T18:54:27.785Z,13.20
2023-05-25T18:56:59.035Z,23.60
2023-05-25T18:59:31.671Z,17.60
2023-05-25T19:02:05.710Z,11.70
2023-05-25T19:04:37.919Z,12.40
2023-05-25T19:07:09.248Z,13.60
2023-05-25T19:09:40.532Z,16.00
2023-05-25T19:12:11.788Z,12.90
2023-05-25T19:14:45.654Z,12.40
2023-05-25T19:17:17.311Z,12.40
2023-05-25T19:19:48.315Z,12.50
2023-05-25T19:22:19.786Z,13.90
2023-05-25T19:25:00.335Z,13.40
2023-05-25T19:27:32.673Z,11.60
2023-05-25T19:30:04.057Z,18.10
2023-05-25T19:32:35.215Z,17.60
2023-05-25T19:35:06.689Z,16.90
2023-05-25T19:37:41.412Z,18.70
2023-05-25T19:40:13.549Z,19.70
2023-05-25T19:42:44.905Z,15.50
2023-05-25T19:45:21.694Z,15.40
2023-05-25T19:47:55.937Z,15.60
2023-05-25T19:50:31.240Z,15.40
2023-05-25T19:53:09.804Z,20.60
2023-05-25T19:55:41.053Z,19.60
2023-05-25T19:58:12.649Z,16.00
2023-05-25T20:00:43.853Z,19.50
2023-05-25T20:03:16.612Z,28.80
2023-05-25T20:05:47.988Z,18.70
2023-05-25T20:08:22.671Z,16.50
2023-05-25T20:11:00.434Z,22.80
2023-05-25T20:13:33.374Z,14.80
2023-05-25T20:16:05.163Z,21.70
2023-05-25T20:18:36.382Z,13.90
2023-05-25T20:21:07.506Z,19.50
2023-05-25T20:23:39.960Z,19.40
2023-05-25T20:26:11.375Z,20.00
2023-05-25T20:28:43.078Z,22.60
2023-05-25T20:31:14.099Z,24.20
2023-05-25T20:33:50.008Z,18.70
2023-05-25T20:36:21.598Z,20.90
2023-05-25T20:38:52.823Z,25.30
2023-05-25T20:41:24.343Z,16.00
2023-05-25T20:44:08.489Z,18.20
2023-05-25T20:46:40.960Z,16.80
2023-05-25T20:49:18.490Z,18.60
2023-05-25T20:51:50.880Z,18.20
2023-05-25T20:54:22.013Z,21.10
2023-05-25T20:57:02.510Z,18.50
2023-05-25T20:59:35.275Z,17.20
2023-05-25T21:02:09.605Z,15.70
2023-05-25T21:04:42.975Z,14.30
2023-05-25T21:07:14.679Z,18.70
2023-05-25T21:09:45.957Z,16.40
2023-05-25T21:12:17.166Z,19.50
2023-05-25T21:14:48.293Z,13.80
2023-05-25T21:17:20.130Z,21.00
2023-05-25T21:19:51.486Z,21.30
2023-05-25T21:22:22.435Z,17.10
2023-05-25T21:24:53.550Z,18.50
2023-05-25T21:27:25.551Z,13.50
2023-05-25T21:29:56.597Z,20.40
2023-05-25T21:32:30.656Z,13.70
2023-05-25T21:35:01.732Z,15.60
2023-05-25T21:37:32.683Z,12.10
2023-05-25T21:40:06.040Z,14.40
2023-05-25T21:42:37.053Z,12.80
2023-05-25T21:45:09.223Z,17.10
2023-05-25T21:47:39.939Z,11.80
2023-05-25T21:50:11.305Z,15.70
2023-05-25T21:52:42.620Z,15.70
2023-05-25T21:55:14.549Z,16.00
2023-05-25T21:57:45.334Z,13.40
2023-05-25T22:00:18.708Z,13.90
2023-05-25T22:02:49.654Z,13.40
2023-05-25T22:05:20.905Z,13.60
2023-05-25T22:07:53.507Z,13.00
2023-05-25T22:10:26.244Z,12.30
2023-05-25T22:12:57.352Z,15.10
2023-05-25T22:15:28.170Z,16.60
2023-05-25T22:17:59.321Z,13.60
2023-05-25T22:20:30.524Z,13.80
2023-05-25T22:23:01.466Z,13.50
2023-05-25T22:25:32.399Z,14.50
2023-05-25T22:28:03.341Z,14.70
2023-05-25T22:30:34.247Z,14.10
2023-05-25T22:33:05.307Z,12.60
2023-05-25T22:35:36.292Z,15.10
2023-05-25T22:38:07.082Z,15.20
2023-05-25T22:40:37.961Z,14.50
2023-05-25T22:43:13.096Z,12.30
2023-05-25T22:45:46.661Z,12.80
2023-05-25T22:48:17.899Z,14.10
2023-05-25T22:50:48.747Z,13.80
2023-05-25T22:53:19.945Z,14.70
2023-05-25T22:55:51.144Z,12.60
2023-05-25T22:58:22.215Z,14.20
2023-05-25T23:00:53.098Z,11.20
2023-05-25T23:03:24.142Z,12.00
2023-05-25T23:05:55.061Z,16.20
2023-05-25T23:08:25.889Z,16.40
2023-05-25T23:10:56.747Z,12.00
2023-05-25T23:13:27.933Z,11.30
2023-05-25T23:15:58.673Z,11.70
2023-05-25T23:18:29.440Z,12.30
2023-05-25T23:21:00.156Z,10.60
2023-05-25T23:23:30.804Z,10.90
2023-05-25T23:26:01.557Z,10.50
2023-05-25T23:28:32.541Z,8.90
2023-05-25T23:31:03.377Z,13.00
2023-05-25T23:33:34.151Z,10.40
2023-05-25T23:36:04.947Z,13.90
2023-05-25T23:38:35.667Z,17.80
2023-05-25T23:41:06.629Z,9.80
2023-05-25T23:43:37.327Z,13.20
2023-05-25T23:46:08.810Z,12.10
2023-05-25T23:48:39.526Z,14.40
2023-05-25T23:51:11.139Z,11.00
2023-05-25T23:53:41.914Z,11.20
2023-05-25T23:56:12.653Z,12.90
2023-05-25T23:58:44.021Z,13.40
